createdAt,value
2018-10-21T00:00:17.614Z,1001.01
2018-10-21T00:01:24.522Z,1001.05
2018-10-21T00:02:31.251Z,1000.98
2018-10-21T00:03:38.032Z,1000.95
2018-10-21T00:04:44.688Z,1001.02
2018-10-21T00:05:52.071Z,1000.91
2018-10-21T00:06:58.774Z,1000.99
2018-10-21T00:08:05.591Z,1000.94
2018-10-21T00:09:12.668Z,1001.03
2018-10-21T00:10:19.386Z,1000.98
2018-10-21T00:11:26.090Z,1001.04
2018-10-21T00:12:32.770Z,1001.04
2018-10-21T00:13:40.087Z,1001.02
2018-10-21T00:14:46.787Z,1001.04
2018-10-21T00:15:54.082Z,1001.01
2018-10-21T00:17:00.701Z,1001.01
2018-10-21T00:18:08.005Z,1000.99
2018-10-21T00:20:21.952Z,1001.04
2018-10-21T00:21:28.819Z,1000.87
2018-10-21T00:22:35.698Z,1000.84
2018-10-21T00:23:42.748Z,1000.93
2018-10-21T00:24:49.532Z,1000.88
2018-10-21T00:25:56.309Z,1000.88
2018-10-21T00:27:03.243Z,1000.90
2018-10-21T00:28:10.106Z,1000.88
2018-10-21T00:29:16.699Z,1000.84
2018-10-21T00:30:23.974Z,1000.85
2018-10-21T00:31:30.535Z,1000.86
2018-10-21T00:32:38.034Z,1000.87
2018-10-21T00:33:44.894Z,1000.95
2018-10-21T00:34:52.142Z,1000.91
2018-10-21T00:35:58.819Z,1000.88
2018-10-21T00:37:06.210Z,1000.86
2018-10-21T00:38:12.802Z,1000.83
2018-10-21T00:39:20.127Z,1000.88
2018-10-21T00:40:26.743Z,1000.88
2018-10-21T00:41:33.975Z,1000.87
2018-10-21T00:42:40.830Z,1000.92
2018-10-21T00:43:47.594Z,1000.84
2018-10-21T00:44:54.377Z,1000.92
2018-10-21T00:46:01.016Z,1000.91
2018-10-21T00:47:08.326Z,1000.93
2018-10-21T00:48:14.976Z,1000.92
2018-10-21T00:49:22.229Z,1000.88
2018-10-21T00:50:28.914Z,1000.86
2018-10-21T00:51:35.700Z,1000.94
2018-10-21T00:52:42.549Z,1000.88
2018-10-21T00:53:49.311Z,1000.94
2018-10-21T00:54:55.886Z,1000.97
2018-10-21T00:56:03.029Z,1000.90
2018-10-21T00:57:09.948Z,1000.84
2018-10-21T00:58:16.787Z,1000.85
2018-10-21T00:59:23.492Z,1000.87
2018-10-21T01:00:30.105Z,1000.88
2018-10-21T01:01:37.371Z,1000.78
2018-10-21T01:02:43.966Z,1000.82
2018-10-21T01:03:51.319Z,1000.80
2018-10-21T01:04:58.071Z,1000.87
2018-10-21T01:06:04.778Z,1000.82
2018-10-21T01:07:11.518Z,1000.76
2018-10-21T01:08:18.166Z,1000.72
2018-10-21T01:09:25.655Z,1000.69
2018-10-21T01:10:32.305Z,1000.71
2018-10-21T01:11:39.591Z,1000.71
2018-10-21T01:12:46.228Z,1000.74
2018-10-21T01:13:53.537Z,1000.77
2018-10-21T01:15:00.212Z,1000.71
2018-10-21T01:16:07.054Z,1000.75
2018-10-21T01:17:13.719Z,1000.72
2018-10-21T01:18:20.507Z,1000.73
2018-10-21T01:19:27.149Z,1000.72
2018-10-21T01:20:34.428Z,1000.70
2018-10-21T01:21:40.975Z,1000.70
2018-10-21T01:22:48.278Z,1000.66
2018-10-21T01:23:55.033Z,1000.71
2018-10-21T01:25:01.631Z,1000.72
2018-10-21T01:26:08.555Z,1000.71
2018-10-21T01:27:15.235Z,1000.72
2018-10-21T01:28:22.127Z,1000.69
2018-10-21T01:29:28.734Z,1000.66
2018-10-21T01:30:35.970Z,1000.56
2018-10-21T01:31:42.595Z,1000.58
2018-10-21T01:32:49.826Z,1000.57
2018-10-21T01:33:56.611Z,1000.59
2018-10-21T01:35:03.287Z,1000.66
2018-10-21T01:36:10.390Z,1000.57
2018-10-21T01:37:17.213Z,1000.60
2018-10-21T01:38:23.926Z,1000.63
2018-10-21T01:39:30.571Z,1000.57
2018-10-21T01:40:37.619Z,1000.56
2018-10-21T01:41:44.697Z,1000.59
2018-10-21T01:42:51.974Z,1000.62
2018-10-21T01:43:58.656Z,1000.58
2018-10-21T01:45:05.955Z,1000.58
2018-10-21T01:46:12.669Z,1000.58
2018-10-21T01:47:19.334Z,1000.59
2018-10-21T01:48:26.532Z,1000.49
2018-10-21T01:49:33.290Z,1000.54
2018-10-21T01:50:40.422Z,1000.49
2018-10-21T01:51:47.163Z,1000.46
2018-10-21T01:52:54.118Z,1000.45
2018-10-21T01:54:00.879Z,1000.46
2018-10-21T01:55:07.637Z,1000.50
2018-10-21T01:56:14.356Z,1000.42
2018-10-21T01:57:21.238Z,1000.42
2018-10-21T01:58:28.102Z,1000.45
2018-10-21T01:59:35.310Z,1000.44
2018-10-21T02:00:41.984Z,1000.47
2018-10-21T02:01:49.244Z,1000.53
2018-10-21T02:02:55.960Z,1000.52
2018-10-21T02:04:04.540Z,1000.47
2018-10-21T02:05:10.866Z,1000.47
2018-10-21T02:06:16.801Z,1000.45
2018-10-21T02:07:23.623Z,1000.47
2018-10-21T02:08:30.396Z,1000.41
2018-10-21T02:09:37.259Z,1000.45
2018-10-21T02:10:44.167Z,1000.38
2018-10-21T02:11:50.923Z,1000.38
2018-10-21T02:12:58.528Z,1000.36
2018-10-21T02:14:04.956Z,1000.32
2018-10-21T02:15:11.842Z,1000.47
2018-10-21T02:16:18.323Z,1000.41
2018-10-21T02:17:25.533Z,1000.41
2018-10-21T02:18:32.437Z,1000.34
2018-10-21T02:19:39.339Z,1000.36
2018-10-21T02:20:46.498Z,1000.31
2018-10-21T02:21:52.838Z,1000.29
2018-10-21T02:22:59.510Z,1000.36
2018-10-21T02:24:06.355Z,1000.40
2018-10-21T02:25:13.145Z,1000.34
2018-10-21T02:26:19.918Z,1000.32
2018-10-21T02:27:26.872Z,1000.29
2018-10-21T02:28:33.810Z,1000.35
2018-10-21T02:29:40.591Z,1000.38
2018-10-21T02:30:47.579Z,1000.30
2018-10-21T02:31:54.350Z,1000.39
2018-10-21T02:33:01.158Z,1000.27
2018-10-21T02:34:08.105Z,1000.38
2018-10-21T02:35:15.247Z,1000.35
2018-10-21T02:36:22.146Z,1000.45
2018-10-21T02:37:28.894Z,1000.46
2018-10-21T02:38:35.969Z,1000.35
2018-10-21T02:39:42.823Z,1000.33
2018-10-21T02:40:49.574Z,1000.44
2018-10-21T02:41:56.580Z,1000.37
2018-10-21T02:43:04.163Z,1000.44
2018-10-21T02:44:10.614Z,1000.37
2018-10-21T02:45:17.336Z,1000.35
2018-10-21T02:46:24.206Z,1000.45
2018-10-21T02:47:31.010Z,1000.36
2018-10-21T02:48:37.775Z,1000.45
2018-10-21T02:49:45.063Z,1000.38
2018-10-21T02:50:51.991Z,1000.36
2018-10-21T02:51:58.966Z,1000.36
2018-10-21T02:53:05.493Z,1000.43
2018-10-21T02:54:12.231Z,1000.32
2018-10-21T02:55:19.881Z,1000.31
2018-10-21T02:56:26.045Z,1000.25
2018-10-21T02:57:33.108Z,1000.18
2018-10-21T02:58:41.078Z,1000.25
2018-10-21T02:59:46.865Z,1000.21
2018-10-21T03:00:53.637Z,1000.27
2018-10-21T03:02:00.381Z,1000.28
2018-10-21T03:03:07.652Z,1000.24
2018-10-21T03:04:14.303Z,1000.33
2018-10-21T03:05:21.706Z,1000.32
2018-10-21T03:06:27.879Z,1000.34
2018-10-21T03:07:34.725Z,1000.31
2018-10-21T03:08:41.498Z,1000.32
2018-10-21T03:09:48.198Z,1000.30
2018-10-21T03:10:55.345Z,1000.32
2018-10-21T03:12:02.073Z,1000.39
2018-10-21T03:13:09.971Z,1000.39
2018-10-21T03:14:15.737Z,1000.30
2018-10-21T03:15:22.529Z,1000.29
2018-10-21T03:16:29.373Z,1000.33
2018-10-21T03:17:36.642Z,1000.27
2018-10-21T03:18:43.626Z,1000.20
2018-10-21T03:19:50.679Z,1000.30
2018-10-21T03:20:57.750Z,1000.27
2018-10-21T03:23:11.066Z,1000.31
2018-10-21T03:24:18.193Z,1000.34
2018-10-21T03:25:25.079Z,1000.41
2018-10-21T03:26:31.781Z,1000.43
2018-10-21T03:27:39.029Z,1000.44
2018-10-21T03:28:45.695Z,1000.41
2018-10-21T03:29:52.658Z,1000.39
2018-10-21T03:30:59.449Z,1000.38
2018-10-21T03:32:06.702Z,1000.37
2018-10-21T03:33:13.523Z,1000.37
2018-10-21T03:34:20.382Z,1000.39
2018-10-21T03:35:27.295Z,1000.31
2018-10-21T03:36:34.175Z,1000.39
2018-10-21T03:37:41.804Z,1000.38
2018-10-21T03:38:47.510Z,1000.42
2018-10-21T03:39:54.799Z,1000.45
2018-10-21T03:41:01.581Z,1000.48
2018-10-21T03:42:08.724Z,1000.39
2018-10-21T03:43:15.514Z,1000.42
2018-10-21T03:44:22.578Z,1000.47
2018-10-21T03:45:29.226Z,1000.45
2018-10-21T03:46:36.195Z,1000.42
2018-10-21T03:47:43.156Z,1000.45
2018-10-21T03:48:50.148Z,1000.58
2018-10-21T03:49:57.220Z,1000.51
2018-10-21T03:51:04.097Z,1000.49
2018-10-21T03:52:10.896Z,1000.50
2018-10-21T03:53:17.538Z,1000.49
2018-10-21T03:54:24.860Z,1000.58
2018-10-21T03:55:31.496Z,1000.50
2018-10-21T03:56:38.843Z,1000.50
2018-10-21T03:57:45.171Z,1000.51
2018-10-21T03:58:52.133Z,1000.59
2018-10-21T03:59:58.845Z,1000.54
2018-10-21T04:01:05.994Z,1000.51
2018-10-21T04:02:12.857Z,1000.63
2018-10-21T04:03:20.055Z,1000.61
2018-10-21T04:04:26.298Z,1000.59
2018-10-21T04:05:33.058Z,1000.57
2018-10-21T04:06:40.024Z,1000.61
2018-10-21T04:07:46.759Z,1000.54
2018-10-21T04:08:53.522Z,1000.50
2018-10-21T04:10:00.448Z,1000.56
2018-10-21T04:11:07.348Z,1000.53
2018-10-21T04:12:14.118Z,1000.51
2018-10-21T04:13:20.910Z,1000.52
2018-10-21T04:14:27.976Z,1000.62
2018-10-21T04:15:34.839Z,1000.47
2018-10-21T04:16:41.653Z,1000.39
2018-10-21T04:17:48.226Z,1000.46
2018-10-21T04:18:55.238Z,1000.40
2018-10-21T04:20:02.642Z,1000.43
2018-10-21T04:21:09.241Z,1000.42
2018-10-21T04:22:16.401Z,1000.45
2018-10-21T04:23:23.323Z,1000.41
2018-10-21T04:24:29.932Z,1000.44
2018-10-21T04:25:36.894Z,1000.34
2018-10-21T04:26:43.647Z,1000.42
2018-10-21T04:27:50.376Z,1000.36
2018-10-21T04:28:57.151Z,1000.36
2018-10-21T04:30:03.951Z,1000.37
2018-10-21T04:31:11.361Z,1000.34
2018-10-21T04:32:17.523Z,1000.27
2018-10-21T04:33:25.382Z,1000.32
2018-10-21T04:34:31.794Z,1000.32
2018-10-21T04:35:38.588Z,1000.33
2018-10-21T04:36:45.657Z,1000.35
2018-10-21T04:37:52.367Z,1000.31
2018-10-21T04:40:03.397Z,1000.29
2018-10-21T04:41:10.547Z,1000.38
2018-10-21T04:42:16.810Z,1000.40
2018-10-21T04:43:23.592Z,1000.39
2018-10-21T04:44:30.329Z,1000.35
2018-10-21T04:45:39.271Z,1000.42
2018-10-21T04:46:44.897Z,1000.39
2018-10-21T04:47:51.617Z,1000.42
2018-10-21T04:48:58.403Z,1000.35
2018-10-21T04:50:05.447Z,1000.32
2018-10-21T04:51:12.671Z,1000.28
2018-10-21T04:52:19.445Z,1000.25
2018-10-21T04:53:26.322Z,1000.17
2018-10-21T04:54:33.077Z,1000.19
2018-10-21T04:55:39.773Z,1000.30
2018-10-21T04:56:46.443Z,1000.23
2018-10-21T04:57:53.765Z,1000.23
2018-10-21T04:59:00.501Z,1000.19
2018-10-21T05:00:07.577Z,1000.20
2018-10-21T05:01:14.243Z,1000.24
2018-10-21T05:02:21.936Z,1000.21
2018-10-21T05:03:28.051Z,1000.18
2018-10-21T05:04:35.360Z,1000.11
2018-10-21T05:05:42.246Z,1000.13
2018-10-21T05:06:48.981Z,1000.20
2018-10-21T05:07:55.698Z,1000.17
2018-10-21T05:09:02.831Z,1000.16
2018-10-21T05:10:09.846Z,1000.15
2018-10-21T05:11:16.191Z,1000.19
2018-10-21T05:12:23.740Z,1000.14
2018-10-21T05:13:30.463Z,1000.15
2018-10-21T05:14:37.707Z,1000.14
2018-10-21T05:15:44.070Z,1000.20
2018-10-21T05:16:50.846Z,1000.22
2018-10-21T05:17:57.983Z,1000.14
2018-10-21T05:19:04.880Z,1000.21
2018-10-21T05:20:11.506Z,1000.08
2018-10-21T05:21:18.494Z,1000.06
2018-10-21T05:22:25.552Z,1000.07
2018-10-21T05:23:32.227Z,1000.07
2018-10-21T05:24:39.692Z,1000.04
2018-10-21T05:25:46.374Z,1000.05
2018-10-21T05:26:53.327Z,1000.00
2018-10-21T05:27:59.996Z,1000.14
2018-10-21T05:29:06.815Z,1000.06
2018-10-21T05:30:13.615Z,999.98
2018-10-21T05:31:20.819Z,1000.05
2018-10-21T05:32:27.050Z,999.97
2018-10-21T05:33:34.246Z,999.97
2018-10-21T05:34:41.009Z,999.95
2018-10-21T05:35:47.712Z,1000.05
2018-10-21T05:36:54.594Z,1000.03
2018-10-21T05:38:01.797Z,1000.02
2018-10-21T05:39:09.373Z,1000.01
2018-10-21T05:40:15.364Z,1000.04
2018-10-21T05:41:22.539Z,1000.02
2018-10-21T05:42:29.278Z,999.98
2018-10-21T05:43:36.051Z,999.99
2018-10-21T05:44:42.828Z,999.89
2018-10-21T05:45:49.713Z,999.96
2018-10-21T05:46:56.652Z,999.92
2018-10-21T05:48:03.322Z,999.98
2018-10-21T05:49:10.054Z,999.98
2018-10-21T05:50:16.900Z,1000.05
2018-10-21T05:51:24.131Z,1000.05
2018-10-21T05:52:30.355Z,1000.12
2018-10-21T05:53:37.151Z,1000.10
2018-10-21T05:54:43.800Z,1000.14
2018-10-21T05:55:51.060Z,1000.07
2018-10-21T05:56:57.310Z,1000.15
2018-10-21T05:58:04.213Z,1000.07
2018-10-21T05:59:11.260Z,1000.04
2018-10-21T06:00:17.819Z,1000.09
2018-10-21T06:01:24.786Z,1000.04
2018-10-21T06:02:32.473Z,1000.04
2018-10-21T06:03:38.455Z,1000.10
2018-10-21T06:04:45.129Z,1000.03
2018-10-21T06:05:52.194Z,1000.00
2018-10-21T06:06:59.543Z,1000.01
2018-10-21T06:08:05.874Z,999.99
2018-10-21T06:09:13.065Z,1000.02
2018-10-21T06:10:19.823Z,1000.00
2018-10-21T06:11:26.486Z,1000.01
2018-10-21T06:12:34.727Z,1000.04
2018-10-21T06:13:40.444Z,1000.16
2018-10-21T06:14:47.094Z,1000.11
2018-10-21T06:15:54.202Z,1000.15
2018-10-21T06:17:01.663Z,1000.09
2018-10-21T06:18:07.955Z,1000.05
2018-10-21T06:19:15.595Z,1000.18
2018-10-21T06:20:22.106Z,1000.04
2018-10-21T06:21:28.802Z,1000.02
2018-10-21T06:22:36.626Z,1000.02
2018-10-21T06:23:42.803Z,1000.05
2018-10-21T06:24:49.418Z,1000.02
2018-10-21T06:25:56.698Z,999.94
2018-10-21T06:27:03.759Z,1000.12
2018-10-21T06:28:10.330Z,1000.08
2018-10-21T06:29:17.588Z,1000.07
2018-10-21T06:30:24.350Z,999.98
2018-10-21T06:31:31.110Z,1000.00
2018-10-21T06:32:38.239Z,1000.02
2018-10-21T06:33:45.006Z,999.97
2018-10-21T06:34:52.235Z,1000.06
2018-10-21T06:35:59.129Z,1000.02
2018-10-21T06:37:06.000Z,999.99
2018-10-21T06:38:12.556Z,1000.04
2018-10-21T06:39:19.788Z,999.99
2018-10-21T06:40:26.603Z,999.95
2018-10-21T06:41:33.645Z,999.91
2018-10-21T06:42:40.945Z,999.91
2018-10-21T06:43:47.513Z,999.93
2018-10-21T06:44:55.285Z,999.90
2018-10-21T06:46:01.338Z,999.94
2018-10-21T06:47:08.391Z,999.94
2018-10-21T06:48:15.136Z,999.98
2018-10-21T06:49:22.422Z,999.99
2018-10-21T06:50:29.001Z,999.96
2018-10-21T06:51:36.284Z,999.97
2018-10-21T06:52:42.890Z,999.96
2018-10-21T06:53:50.193Z,1000.09
2018-10-21T06:54:57.270Z,999.96
2018-10-21T06:56:04.147Z,1000.04
2018-10-21T06:57:10.907Z,1000.09
2018-10-21T06:58:18.419Z,1000.05
2018-10-21T06:59:25.250Z,1000.18
2018-10-21T07:00:31.531Z,1000.06
2018-10-21T07:01:38.294Z,1000.14
2018-10-21T07:02:45.468Z,1000.13
2018-10-21T07:03:52.243Z,1000.09
2018-10-21T07:04:58.994Z,1000.16
2018-10-21T07:06:06.572Z,1000.16
2018-10-21T07:07:13.631Z,1000.16
2018-10-21T07:08:20.534Z,1000.17
2018-10-21T07:09:26.697Z,1000.20
2018-10-21T07:10:33.874Z,1000.15
2018-10-21T07:11:42.221Z,1000.14
2018-10-21T07:12:47.971Z,1000.19
2018-10-21T07:13:55.094Z,1000.20
2018-10-21T07:15:01.698Z,1000.24
2018-10-21T07:16:09.099Z,1000.28
2018-10-21T07:17:15.666Z,1000.30
2018-10-21T07:18:22.439Z,1000.34
2018-10-21T07:19:29.294Z,1000.37
2018-10-21T07:20:36.049Z,1000.26
2018-10-21T07:21:42.812Z,1000.28
2018-10-21T07:22:49.494Z,1000.25
2018-10-21T07:23:56.903Z,1000.25
2018-10-21T07:25:03.787Z,1000.24
2018-10-21T07:26:10.412Z,1000.30
2018-10-21T07:27:17.046Z,1000.27
2018-10-21T07:28:25.180Z,1000.33
2018-10-21T07:29:31.197Z,1000.32
2018-10-21T07:30:38.211Z,1000.29
2018-10-21T07:31:45.769Z,1000.30
2018-10-21T07:32:52.321Z,1000.31
2018-10-21T07:33:59.222Z,1000.27
2018-10-21T07:35:06.339Z,1000.32
2018-10-21T07:36:12.955Z,1000.36
2018-10-21T07:37:19.775Z,1000.31
2018-10-21T07:38:26.450Z,1000.43
2018-10-21T07:39:33.304Z,1000.29
2018-10-21T07:40:40.583Z,1000.36
2018-10-21T07:41:46.727Z,1000.26
2018-10-21T07:42:53.527Z,1000.33
2018-10-21T07:44:00.233Z,1000.35
2018-10-21T07:45:07.233Z,1000.31
2018-10-21T07:46:14.146Z,1000.28
2018-10-21T07:47:20.973Z,1000.29
2018-10-21T07:48:27.775Z,1000.25
2018-10-21T07:49:34.631Z,1000.22
2018-10-21T07:50:41.598Z,1000.30
2018-10-21T07:51:48.645Z,1000.28
2018-10-21T07:52:55.300Z,1000.23
2018-10-21T07:54:02.527Z,1000.27
2018-10-21T07:55:09.693Z,1000.29
2018-10-21T07:56:16.923Z,1000.30
2018-10-21T07:57:23.709Z,1000.26
2018-10-21T07:58:30.596Z,1000.21
2018-10-21T07:59:37.420Z,1000.27
2018-10-21T08:00:44.060Z,1000.21
2018-10-21T08:01:51.268Z,1000.24
2018-10-21T08:02:58.126Z,1000.21
2018-10-21T08:04:04.992Z,1000.27
2018-10-21T08:05:11.653Z,1000.30
2018-10-21T08:06:18.523Z,1000.27
2018-10-21T08:07:25.416Z,1000.28
2018-10-21T08:08:32.809Z,1000.31
2018-10-21T08:09:39.339Z,1000.31
2018-10-21T08:10:46.359Z,1000.33
2018-10-21T08:11:53.427Z,1000.32
2018-10-21T08:13:00.253Z,1000.30
2018-10-21T08:14:07.130Z,1000.35
2018-10-21T08:15:14.164Z,1000.30
2018-10-21T08:16:21.071Z,1000.37
2018-10-21T08:17:27.922Z,1000.34
2018-10-21T08:18:34.803Z,1000.24
2018-10-21T08:19:41.463Z,1000.31
2018-10-21T08:20:49.038Z,1000.29
2018-10-21T08:21:55.836Z,1000.26
2018-10-21T08:23:02.876Z,1000.20
2018-10-21T08:24:09.213Z,1000.17
2018-10-21T08:25:16.704Z,1000.26
2018-10-21T08:26:22.971Z,1000.25
2018-10-21T08:27:29.839Z,1000.31
2018-10-21T08:28:36.712Z,1000.19
2018-10-21T08:29:43.390Z,1000.15
2018-10-21T08:30:50.166Z,1000.28
2018-10-21T08:31:56.901Z,1000.24
2018-10-21T08:33:03.546Z,1000.21
2018-10-21T08:34:10.765Z,1000.21
2018-10-21T08:35:18.211Z,1000.13
2018-10-21T08:36:24.772Z,1000.20
2018-10-21T08:37:31.496Z,1000.19
2018-10-21T08:38:38.241Z,1000.24
2018-10-21T08:39:44.982Z,1000.20
2018-10-21T08:40:51.931Z,1000.20
2018-10-21T08:41:58.582Z,1000.14
2018-10-21T08:43:05.358Z,1000.23
2018-10-21T08:44:12.176Z,1000.15
2018-10-21T08:45:19.254Z,1000.17
2018-10-21T08:46:28.122Z,1000.17
2018-10-21T08:47:33.138Z,1000.15
2018-10-21T08:48:39.937Z,1000.19
2018-10-21T08:49:46.904Z,1000.26
2018-10-21T08:50:53.781Z,1000.23
2018-10-21T08:52:00.659Z,1000.21
2018-10-21T08:53:07.357Z,1000.22
2018-10-21T08:54:14.244Z,1000.13
2018-10-21T08:55:21.020Z,1000.24
2018-10-21T08:56:27.789Z,1000.15
2018-10-21T08:57:34.639Z,1000.13
2018-10-21T08:58:41.291Z,1000.24
2018-10-21T08:59:48.242Z,1000.19
2018-10-21T09:00:55.215Z,1000.19
2018-10-21T09:02:02.020Z,1000.13
2018-10-21T09:03:08.773Z,1000.17
2018-10-21T09:04:15.447Z,1000.10
2018-10-21T09:05:23.793Z,1000.07
2018-10-21T09:06:29.978Z,1000.02
2018-10-21T09:07:36.719Z,1000.08
2018-10-21T09:08:43.492Z,1000.04
2018-10-21T09:09:50.546Z,1000.05
2018-10-21T09:10:57.190Z,999.99
2018-10-21T09:12:03.822Z,1000.06
2018-10-21T09:13:11.207Z,999.98
2018-10-21T09:14:17.842Z,999.97
2018-10-21T09:15:24.594Z,1000.00
2018-10-21T09:16:34.113Z,999.97
2018-10-21T09:17:38.279Z,1000.04
2018-10-21T09:18:44.822Z,1000.04
2018-10-21T09:19:52.131Z,1000.01
2018-10-21T09:20:59.093Z,1000.00
2018-10-21T09:22:06.239Z,1000.00
2018-10-21T09:23:12.897Z,999.97
2018-10-21T09:24:20.472Z,1000.03
2018-10-21T09:25:27.370Z,1000.05
2018-10-21T09:26:34.301Z,1000.07
2018-10-21T09:27:40.952Z,999.94
2018-10-21T09:28:47.904Z,999.94
2018-10-21T09:29:54.854Z,999.94
2018-10-21T09:31:01.651Z,999.97
2018-10-21T09:32:08.883Z,999.96
2018-10-21T09:33:15.665Z,999.97
2018-10-21T09:34:22.372Z,999.87
2018-10-21T09:35:29.181Z,999.87
2018-10-21T09:36:36.278Z,999.89
2018-10-21T09:37:43.054Z,999.91
2018-10-21T09:38:50.386Z,999.87
2018-10-21T09:39:57.270Z,999.87
2018-10-21T09:41:04.145Z,999.90
2018-10-21T09:42:10.819Z,999.91
2018-10-21T09:43:18.058Z,999.85
2018-10-21T09:44:24.751Z,999.81
2018-10-21T09:45:31.805Z,999.78
2018-10-21T09:46:38.954Z,999.75
2018-10-21T09:47:45.444Z,999.80
2018-10-21T09:48:52.391Z,999.79
2018-10-21T09:49:59.441Z,999.75
2018-10-21T09:51:06.591Z,999.81
2018-10-21T09:52:13.214Z,999.82
2018-10-21T09:53:20.388Z,999.76
2018-10-21T09:54:27.055Z,999.74
2018-10-21T09:55:34.212Z,999.76
2018-10-21T09:56:41.421Z,999.79
2018-10-21T09:57:48.147Z,999.73
2018-10-21T09:58:55.197Z,999.76
2018-10-21T10:00:01.851Z,999.75
2018-10-21T10:01:09.028Z,999.69
2018-10-21T10:02:15.611Z,999.71
2018-10-21T10:03:22.581Z,999.76
2018-10-21T10:04:29.679Z,999.70
2018-10-21T10:05:36.403Z,999.73
2018-10-21T10:06:43.654Z,999.67
2018-10-21T10:07:49.945Z,999.67
2018-10-21T10:08:56.793Z,999.60
2018-10-21T10:10:03.832Z,999.63
2018-10-21T10:11:10.799Z,999.61
2018-10-21T10:12:18.057Z,999.60
2018-10-21T10:13:24.432Z,999.63
2018-10-21T10:14:31.368Z,999.59
2018-10-21T10:15:38.264Z,999.57
2018-10-21T10:16:44.986Z,999.58
2018-10-21T10:17:52.392Z,999.61
2018-10-21T10:18:59.067Z,999.62
2018-10-21T10:20:06.103Z,999.59
2018-10-21T10:21:13.047Z,999.61
2018-10-21T10:22:19.870Z,999.60
2018-10-21T10:23:26.789Z,999.71
2018-10-21T10:24:33.782Z,999.62
2018-10-21T10:25:40.676Z,999.62
2018-10-21T10:26:47.399Z,999.64
2018-10-21T10:27:54.717Z,999.65
2018-10-21T10:29:01.361Z,999.52
2018-10-21T10:30:08.519Z,999.53
2018-10-21T10:31:15.514Z,999.55
2018-10-21T10:32:22.630Z,999.48
2018-10-21T10:33:29.537Z,999.45
2018-10-21T10:34:35.766Z,999.51
2018-10-21T10:35:42.435Z,999.46
2018-10-21T10:36:49.936Z,999.48
2018-10-21T10:37:57.702Z,999.45
2018-10-21T10:39:03.567Z,999.46
2018-10-21T10:40:10.470Z,999.45
2018-10-21T10:41:17.643Z,999.39
2018-10-21T10:42:24.287Z,999.46
2018-10-21T10:43:31.388Z,999.38
2018-10-21T10:44:38.164Z,999.33
2018-10-21T10:45:44.913Z,999.39
2018-10-21T10:46:51.905Z,999.40
2018-10-21T10:47:58.825Z,999.34
2018-10-21T10:49:05.759Z,999.29
2018-10-21T10:50:12.759Z,999.33
2018-10-21T10:51:19.662Z,999.26
2018-10-21T10:52:26.205Z,999.22
2018-10-21T10:53:32.950Z,999.26
2018-10-21T10:54:39.706Z,999.24
2018-10-21T10:55:46.419Z,999.22
2018-10-21T10:56:54.273Z,999.15
2018-10-21T10:58:00.599Z,999.08
2018-10-21T10:59:07.756Z,999.15
2018-10-21T11:00:14.474Z,999.13
2018-10-21T11:01:22.173Z,999.08
2018-10-21T11:02:28.792Z,999.04
2018-10-21T11:03:35.593Z,999.15
2018-10-21T11:04:45.960Z,999.09
2018-10-21T11:05:49.302Z,999.13
2018-10-21T11:06:56.416Z,999.07
2018-10-21T11:08:02.866Z,999.02
2018-10-21T11:09:09.749Z,999.08
2018-10-21T11:10:16.724Z,999.06
2018-10-21T11:11:23.537Z,998.98
2018-10-21T11:12:30.221Z,998.92
2018-10-21T11:13:37.638Z,998.93
2018-10-21T11:14:44.523Z,998.86
2018-10-21T11:15:51.293Z,998.82
2018-10-21T11:16:58.448Z,998.97
2018-10-21T11:18:05.176Z,998.83
2018-10-21T11:19:12.117Z,998.85
2018-10-21T11:20:18.922Z,998.83
2018-10-21T11:21:25.870Z,998.81
2018-10-21T11:22:32.723Z,998.87
2018-10-21T11:23:39.589Z,998.74
2018-10-21T11:24:46.518Z,998.80
2018-10-21T11:25:53.362Z,998.74
2018-10-21T11:27:00.623Z,998.63
2018-10-21T11:28:07.803Z,998.70
2018-10-21T11:29:14.768Z,998.64
2018-10-21T11:30:21.991Z,998.69
2018-10-21T11:31:28.994Z,998.68
2018-10-21T11:32:36.045Z,998.71
2018-10-21T11:33:43.109Z,998.60
2018-10-21T11:34:50.026Z,998.63
2018-10-21T11:35:56.529Z,998.65
2018-10-21T11:37:03.716Z,998.64
2018-10-21T11:38:10.835Z,998.62
2018-10-21T11:39:17.959Z,998.65
2018-10-21T11:40:24.486Z,998.60
2018-10-21T11:41:31.831Z,998.60
2018-10-21T11:42:38.793Z,998.65
2018-10-21T11:43:46.045Z,998.66
2018-10-21T11:44:52.689Z,998.59
2018-10-21T11:45:59.891Z,998.66
2018-10-21T11:47:06.955Z,998.67
2018-10-21T11:48:15.138Z,998.62
2018-10-21T11:49:20.450Z,998.61
2018-10-21T11:50:27.578Z,998.69
2018-10-21T11:51:34.679Z,998.65
2018-10-21T11:52:41.676Z,998.62
2018-10-21T11:53:48.174Z,998.59
2018-10-21T11:54:55.342Z,998.64
2018-10-21T11:56:02.571Z,998.61
2018-10-21T11:57:09.265Z,998.59
2018-10-21T11:58:16.112Z,998.58
2018-10-21T11:59:22.984Z,998.57
2018-10-21T12:00:29.680Z,998.52
2018-10-21T12:01:36.722Z,998.64
2018-10-21T12:02:43.211Z,998.49
2018-10-21T12:03:50.197Z,998.56
2018-10-21T12:04:56.947Z,998.60
2018-10-21T12:06:03.846Z,998.58
2018-10-21T12:07:11.345Z,998.57
2018-10-21T12:08:17.727Z,998.58
2018-10-21T12:09:24.798Z,998.46
2018-10-21T12:10:31.966Z,998.47
2018-10-21T12:11:38.786Z,998.43
2018-10-21T12:12:45.587Z,998.40
2018-10-21T12:13:52.561Z,998.45
2018-10-21T12:14:59.329Z,998.44
2018-10-21T12:16:06.787Z,998.48
2018-10-21T12:17:13.772Z,998.40
2018-10-21T12:18:20.953Z,998.36
2018-10-21T12:19:27.513Z,998.32
2018-10-21T12:20:34.260Z,998.36
2018-10-21T12:21:41.090Z,998.31
2018-10-21T12:22:47.955Z,998.39
2018-10-21T12:23:55.348Z,998.32
2018-10-21T12:25:02.265Z,998.34
2018-10-21T12:26:08.895Z,998.36
2018-10-21T12:27:15.779Z,998.39
2018-10-21T12:28:22.614Z,998.31
2018-10-21T12:29:29.198Z,998.32
2018-10-21T12:30:36.428Z,998.31
2018-10-21T12:31:44.260Z,998.31
2018-10-21T12:32:50.018Z,998.26
2018-10-21T12:33:57.114Z,998.25
2018-10-21T12:35:03.548Z,998.33
2018-10-21T12:36:10.423Z,998.27
2018-10-21T12:37:17.195Z,998.27
2018-10-21T12:38:24.772Z,998.27
2018-10-21T12:39:31.662Z,998.27
2018-10-21T12:40:38.510Z,998.28
2018-10-21T12:41:45.246Z,998.26
2018-10-21T12:42:52.257Z,998.21
2018-10-21T12:43:59.402Z,998.16
2018-10-21T12:45:05.859Z,998.18
2018-10-21T12:46:12.659Z,998.18
2018-10-21T12:47:19.282Z,998.23
2018-10-21T12:48:26.450Z,998.26
2018-10-21T12:49:33.254Z,998.19
2018-10-21T12:50:40.128Z,998.20
2018-10-21T12:51:46.730Z,998.26
2018-10-21T12:52:53.686Z,998.14
2018-10-21T12:54:00.524Z,998.25
2018-10-21T12:55:08.100Z,998.22
2018-10-21T12:56:14.206Z,998.20
2018-10-21T12:57:21.097Z,998.20
2018-10-21T12:58:27.949Z,998.19
2018-10-21T12:59:34.689Z,998.21
2018-10-21T13:00:41.355Z,998.20
2018-10-21T13:01:48.535Z,998.20
2018-10-21T13:02:55.316Z,998.19
2018-10-21T13:04:01.917Z,998.17
2018-10-21T13:05:08.709Z,998.18
2018-10-21T13:06:15.302Z,998.17
2018-10-21T13:07:22.571Z,998.21
2018-10-21T13:08:30.692Z,998.11
2018-10-21T13:09:36.509Z,998.12
2018-10-21T13:10:44.594Z,998.14
2018-10-21T13:11:50.761Z,998.18
2018-10-21T13:12:57.546Z,998.16
2018-10-21T13:14:03.666Z,998.15
2018-10-21T13:15:10.838Z,998.18
2018-10-21T13:16:18.210Z,998.09
2018-10-21T13:17:24.866Z,998.09
2018-10-21T13:18:31.928Z,998.11
2018-10-21T13:19:39.316Z,998.10
2018-10-21T13:20:46.213Z,998.10
2018-10-21T13:21:54.028Z,998.12
2018-10-21T13:23:00.265Z,998.05
2018-10-21T13:24:07.098Z,998.08
2018-10-21T13:25:14.166Z,998.03
2018-10-21T13:26:21.354Z,997.99
2018-10-21T13:27:28.226Z,998.01
2018-10-21T13:28:35.528Z,997.97
2018-10-21T13:29:42.376Z,998.02
2018-10-21T13:30:49.487Z,997.94
2018-10-21T13:31:56.006Z,997.88
2018-10-21T13:33:03.199Z,997.89
2018-10-21T13:34:10.038Z,997.90
2018-10-21T13:35:16.758Z,997.92
2018-10-21T13:36:23.892Z,997.91
2018-10-21T13:37:30.503Z,997.83
2018-10-21T13:38:37.656Z,997.82
2018-10-21T13:39:44.530Z,997.84
2018-10-21T13:40:51.974Z,997.85